Time;durP1;ratioP1;P1;durP2;ratioP2;P2;SDS_P1;SDS_P2;PMS_P1;PMS_P2;Temp;Humidity;BMP_temperature;BMP_pressure;BME280_temperature;BME280_humidity;BME280_pressure;Samples;Min_cycle;Max_cycle;Signal;HPM_P1;HPM_P2
2023/06/30 00:00:21;;;;;;;6.10;4.40;;;;;;;;;;5090491;28;20199;-83
2023/06/30 00:02:47;;;;;;;4.53;3.70;;;;;;;;;;5089430;28;20195;-83
2023/06/30 00:05:13;;;;;;;4.30;3.53;;;;;;;;;;5086050;28;20252;-84
2023/06/30 00:07:40;;;;;;;3.40;3.10;;;;;;;;;;5091236;28;20265;-83
2023/06/30 00:10:07;;;;;;;4.43;3.63;;;;;;;;;;5087205;28;20668;-83
2023/06/30 00:12:33;;;;;;;5.27;3.13;;;;;;;;;;5093010;28;20188;-83
2023/06/30 00:14:59;;;;;;;3.97;3.23;;;;;;;;;;5093391;28;20179;-83
2023/06/30 00:17:25;;;;;;;3.57;3.27;;;;;;;;;;5090696;28;20321;-83
2023/06/30 00:19:52;;;;;;;4.70;4.17;;;;;;;;;;5092668;28;20179;-83
2023/06/30 00:22:21;;;;;;;5.10;4.40;;;;;;;;;;5092099;28;20202;-82
2023/06/30 00:24:49;;;;;;;6.50;5.10;;;;;;;;;;5091722;28;20274;-83
2023/06/30 00:27:15;;;;;;;5.80;5.20;;;;;;;;;;5093444;28;20658;-82
2023/06/30 00:29:41;;;;;;;7.80;5.03;;;;;;;;;;5086999;28;20214;-82
2023/06/30 00:32:07;;;;;;;5.20;4.40;;;;;;;;;;5092909;28;20195;-82
2023/06/30 00:34:33;;;;;;;5.70;4.43;;;;;;;;;;5091330;28;20194;-83
2023/06/30 00:36:59;;;;;;;4.87;4.17;;;;;;;;;;5084869;28;20262;-83
2023/06/30 00:39:25;;;;;;;5.37;3.90;;;;;;;;;;5084374;28;20767;-83
2023/06/30 00:41:51;;;;;;;4.27;3.70;;;;;;;;;;5091688;28;20197;-83
2023/06/30 00:44:17;;;;;;;4.43;4.00;;;;;;;;;;5087535;28;20225;-83
2023/06/30 00:46:43;;;;;;;4.03;3.60;;;;;;;;;;5092181;28;20510;-83
2023/06/30 00:49:09;;;;;;;5.10;4.30;;;;;;;;;;5085375;28;20208;-83
2023/06/30 00:51:36;;;;;;;4.30;3.47;;;;;;;;;;5090287;28;20194;-83
2023/06/30 00:54:02;;;;;;;3.97;3.67;;;;;;;;;;5083948;28;20230;-83
2023/06/30 00:56:28;;;;;;;5.87;4.03;;;;;;;;;;5085568;28;20877;-84
2023/06/30 00:58:56;;;;;;;5.40;4.50;;;;;;;;;;5075820;28;20883;-83
2023/06/30 01:01:30;;;;;;;3.70;3.40;;;;;;;;;;5083063;28;20667;-83
2023/06/30 01:03:59;;;;;;;6.53;3.73;;;;;;;;;;5092115;28;20224;-83
2023/06/30 01:06:33;;;;;;;5.53;3.60;;;;;;;;;;5086613;28;20900;-84
2023/06/30 01:09:03;;;;;;;4.80;3.50;;;;;;;;;;5088951;28;20177;-84
2023/06/30 01:11:31;;;;;;;4.90;3.10;;;;;;;;;;5080310;28;20803;-83
2023/06/30 01:13:58;;;;;;;6.10;3.60;;;;;;;;;;5089736;28;20252;-84
2023/06/30 01:16:26;;;;;;;4.33;3.33;;;;;;;;;;5088871;28;20624;-84
2023/06/30 01:18:53;;;;;;;5.33;3.40;;;;;;;;;;5086182;28;20178;-84
2023/06/30 01:21:21;;;;;;;4.10;3.67;;;;;;;;;;5083925;28;20177;-84
2023/06/30 01:23:51;;;;;;;4.57;3.23;;;;;;;;;;5088669;28;20243;-84
2023/06/30 01:26:19;;;;;;;6.90;4.23;;;;;;;;;;5085521;28;20191;-84
2023/06/30 01:28:46;;;;;;;4.30;3.67;;;;;;;;;;5079329;28;20262;-83
2023/06/30 01:31:12;;;;;;;6.50;4.40;;;;;;;;;;5089447;28;20795;-83
2023/06/30 01:33:38;;;;;;;5.50;5.00;;;;;;;;;;5083844;28;20182;-83
2023/06/30 01:36:05;;;;;;;8.27;4.70;;;;;;;;;;5084070;28;20176;-84
2023/06/30 01:38:31;;;;;;;5.37;4.63;;;;;;;;;;5086715;28;20173;-84
2023/06/30 01:40:57;;;;;;;5.27;4.23;;;;;;;;;;5087058;28;20190;-83
2023/06/30 01:43:23;;;;;;;5.30;4.80;;;;;;;;;;5090027;28;20180;-84
2023/06/30 01:45:49;;;;;;;5.07;4.17;;;;;;;;;;5086717;28;20180;-84
2023/06/30 01:48:16;;;;;;;4.20;3.83;;;;;;;;;;5082453;28;20226;-84
2023/06/30 01:50:43;;;;;;;9.37;3.70;;;;;;;;;;5088112;28;20210;-84
2023/06/30 01:53:09;;;;;;;4.13;3.73;;;;;;;;;;5084849;28;20217;-84
2023/06/30 01:55:36;;;;;;;9.17;4.17;;;;;;;;;;5092120;28;20211;-84
2023/06/30 01:58:03;;;;;;;7.27;3.87;;;;;;;;;;5083339;28;20175;-86
2023/06/30 02:00:29;;;;;;;3.70;3.30;;;;;;;;;;5090130;28;20188;-86
2023/06/30 02:02:55;;;;;;;4.00;3.70;;;;;;;;;;5103215;28;20187;-86
2023/06/30 02:05:21;;;;;;;4.80;3.50;;;;;;;;;;5091148;28;20195;-87
2023/06/30 02:07:47;;;;;;;7.13;3.73;;;;;;;;;;5082585;28;20180;-86
2023/06/30 02:10:13;;;;;;;3.73;3.33;;;;;;;;;;5083059;28;20230;-86
2023/06/30 02:12:39;;;;;;;5.33;3.30;;;;;;;;;;5091989;28;20176;-86
2023/06/30 02:15:06;;;;;;;4.33;3.30;;;;;;;;;;5091367;28;20502;-86
2023/06/30 02:17:33;;;;;;;4.43;3.50;;;;;;;;;;5086116;28;20182;-86
2023/06/30 02:20:06;;;;;;;3.83;2.93;;;;;;;;;;5080662;28;20174;-85
2023/06/30 02:22:32;;;;;;;3.97;3.53;;;;;;;;;;5088607;28;20661;-85
2023/06/30 02:24:59;;;;;;;5.23;3.57;;;;;;;;;;5084905;28;20168;-85
2023/06/30 02:27:27;;;;;;;4.10;3.67;;;;;;;;;;5080680;28;20172;-85
2023/06/30 02:29:53;;;;;;;8.77;3.90;;;;;;;;;;5086002;28;20682;-85
2023/06/30 02:32:19;;;;;;;3.27;2.97;;;;;;;;;;5086445;28;20589;-86
2023/06/30 02:34:45;;;;;;;6.60;3.37;;;;;;;;;;5083902;28;20672;-85
2023/06/30 02:37:11;;;;;;;5.97;3.00;;;;;;;;;;5080470;28;20256;-86
2023/06/30 02:39:37;;;;;;;5.07;3.30;;;;;;;;;;5084237;28;20231;-86
2023/06/30 02:42:03;;;;;;;4.20;3.60;;;;;;;;;;5082574;28;20359;-83
2023/06/30 02:44:29;;;;;;;8.60;3.90;;;;;;;;;;5082582;28;20191;-82
2023/06/30 02:46:56;;;;;;;6.00;3.57;;;;;;;;;;5092171;28;20172;-82
2023/06/30 02:49:23;;;;;;;10.20;3.50;;;;;;;;;;5093452;28;20203;-81
2023/06/30 02:51:49;;;;;;;5.87;3.20;;;;;;;;;;5090211;28;20200;-81
2023/06/30 02:54:15;;;;;;;8.07;3.30;;;;;;;;;;5083963;28;20203;-81
2023/06/30 02:56:41;;;;;;;7.80;3.00;;;;;;;;;;5089577;28;20203;-81
2023/06/30 02:59:07;;;;;;;5.13;3.43;;;;;;;;;;5086374;28;20173;-82
2023/06/30 03:01:34;;;;;;;6.30;3.40;;;;;;;;;;5079462;28;20191;-81
2023/06/30 03:04:00;;;;;;;6.43;3.10;;;;;;;;;;5092944;28;20527;-81
2023/06/30 03:06:26;;;;;;;5.63;3.67;;;;;;;;;;5090179;28;20191;-81
2023/06/30 03:08:52;;;;;;;8.10;3.40;;;;;;;;;;5103297;28;20618;-81
2023/06/30 03:11:18;;;;;;;3.97;2.87;;;;;;;;;;5090943;28;20206;-81
2023/06/30 03:13:46;;;;;;;6.30;3.47;;;;;;;;;;5090084;28;20533;-81
2023/06/30 03:16:12;;;;;;;7.17;3.60;;;;;;;;;;5089899;28;20193;-81
2023/06/30 03:18:38;;;;;;;4.80;3.80;;;;;;;;;;5080738;28;20195;-82
2023/06/30 03:21:04;;;;;;;7.47;3.57;;;;;;;;;;5088520;28;20177;-81
2023/06/30 03:23:30;;;;;;;7.83;2.90;;;;;;;;;;5085045;28;20509;-81
2023/06/30 03:25:56;;;;;;;6.13;3.53;;;;;;;;;;5087567;28;20189;-81
2023/06/30 03:28:23;;;;;;;8.57;4.83;;;;;;;;;;5088961;28;20172;-82
2023/06/30 03:30:49;;;;;;;6.53;3.70;;;;;;;;;;5089578;28;20206;-81
2023/06/30 03:33:15;;;;;;;6.37;4.60;;;;;;;;;;5089305;28;20537;-82
2023/06/30 03:35:41;;;;;;;5.13;3.53;;;;;;;;;;5090011;28;20225;-82
2023/06/30 03:38:07;;;;;;;3.57;2.97;;;;;;;;;;5082113;28;20176;-81
2023/06/30 03:40:33;;;;;;;4.83;3.37;;;;;;;;;;5087993;28;20192;-81
2023/06/30 03:42:59;;;;;;;7.30;3.77;;;;;;;;;;5106402;28;20188;-82
2023/06/30 03:45:25;;;;;;;8.20;3.63;;;;;;;;;;5083740;28;20176;-82
2023/06/30 03:47:51;;;;;;;6.73;4.13;;;;;;;;;;5082391;28;20188;-82
2023/06/30 03:50:17;;;;;;;7.40;3.23;;;;;;;;;;5076158;28;20685;-80
2023/06/30 03:52:43;;;;;;;5.83;3.77;;;;;;;;;;5086346;28;20251;-81
2023/06/30 03:55:09;;;;;;;6.73;3.00;;;;;;;;;;5088083;28;20272;-81
2023/06/30 03:57:35;;;;;;;5.27;3.43;;;;;;;;;;5082638;28;20627;-81
2023/06/30 04:00:02;;;;;;;6.20;3.63;;;;;;;;;;5099752;28;20294;-82
2023/06/30 04:02:29;;;;;;;7.07;3.40;;;;;;;;;;5080873;28;20294;-81
2023/06/30 04:04:55;;;;;;;3.90;3.10;;;;;;;;;;5088540;28;20753;-81
2023/06/30 04:07:21;;;;;;;4.43;3.77;;;;;;;;;;5079515;28;20192;-81
2023/06/30 04:09:47;;;;;;;7.30;3.57;;;;;;;;;;5084647;28;20185;-81
2023/06/30 04:12:13;;;;;;;7.07;3.63;;;;;;;;;;5079659;28;20204;-82
2023/06/30 04:14:39;;;;;;;5.43;3.47;;;;;;;;;;5088561;28;20206;-81
2023/06/30 04:17:05;;;;;;;6.33;3.30;;;;;;;;;;5090523;28;20244;-81
2023/06/30 04:19:31;;;;;;;5.57;3.47;;;;;;;;;;5093135;28;20175;-81
2023/06/30 04:21:57;;;;;;;6.37;3.37;;;;;;;;;;5090189;28;20184;-81
2023/06/30 04:24:23;;;;;;;5.73;3.10;;;;;;;;;;5086109;28;20609;-81
2023/06/30 04:26:49;;;;;;;5.17;3.80;;;;;;;;;;5089065;28;20176;-81
2023/06/30 04:29:15;;;;;;;6.90;3.53;;;;;;;;;;5090068;28;20184;-81
2023/06/30 04:31:41;;;;;;;5.63;3.13;;;;;;;;;;5086107;28;20223;-81
2023/06/30 04:34:08;;;;;;;10.60;3.97;;;;;;;;;;5085490;28;20179;-81
2023/06/30 04:36:34;;;;;;;6.37;3.43;;;;;;;;;;5083352;28;20230;-81
2023/06/30 04:39:11;;;;;;;4.63;3.10;;;;;;;;;;5092677;28;20321;-81
2023/06/30 04:41:37;;;;;;;7.50;3.97;;;;;;;;;;5091113;28;20164;-81
2023/06/30 04:44:03;;;;;;;6.17;3.17;;;;;;;;;;5106417;28;20187;-81
2023/06/30 04:46:30;;;;;;;11.33;4.53;;;;;;;;;;5093410;28;20176;-81
2023/06/30 04:48:56;;;;;;;7.73;3.37;;;;;;;;;;5087634;28;20650;-81
2023/06/30 04:51:22;;;;;;;5.43;3.47;;;;;;;;;;5089763;28;20208;-81
2023/06/30 04:53:48;;;;;;;5.60;3.43;;;;;;;;;;5085275;28;20258;-81
2023/06/30 04:56:14;;;;;;;5.53;3.10;;;;;;;;;;5081343;28;20175;-81
2023/06/30 04:58:40;;;;;;;6.37;3.67;;;;;;;;;;5088333;28;20180;-81
2023/06/30 05:01:06;;;;;;;5.60;3.30;;;;;;;;;;5092312;28;20180;-81
2023/06/30 05:03:32;;;;;;;5.23;3.07;;;;;;;;;;5092174;28;20235;-82
2023/06/30 05:05:59;;;;;;;6.70;2.80;;;;;;;;;;5109754;28;20631;-81
2023/06/30 05:08:25;;;;;;;8.40;3.30;;;;;;;;;;5093760;28;20193;-81
2023/06/30 05:10:51;;;;;;;6.33;3.07;;;;;;;;;;5088429;28;20206;-81
2023/06/30 05:13:18;;;;;;;12.37;3.27;;;;;;;;;;5093057;28;20269;-80
2023/06/30 05:15:44;;;;;;;5.33;3.13;;;;;;;;;;5084121;28;20195;-81
2023/06/30 05:18:10;;;;;;;9.67;3.53;;;;;;;;;;5088415;28;20627;-81
2023/06/30 05:20:39;;;;;;;7.10;3.20;;;;;;;;;;5081174;28;20197;-80
2023/06/30 05:23:05;;;;;;;3.70;2.70;;;;;;;;;;5093298;28;20205;-81
2023/06/30 05:25:31;;;;;;;3.83;2.93;;;;;;;;;;5091003;28;20321;-81
2023/06/30 05:27:57;;;;;;;6.77;2.97;;;;;;;;;;5086323;28;20613;-81
2023/06/30 05:30:23;;;;;;;4.37;2.97;;;;;;;;;;5091770;28;20661;-81
2023/06/30 05:32:49;;;;;;;3.53;2.80;;;;;;;;;;5089837;28;20191;-81
2023/06/30 05:35:15;;;;;;;5.73;3.20;;;;;;;;;;5089579;28;20173;-81
2023/06/30 05:37:41;;;;;;;6.63;2.97;;;;;;;;;;5086751;28;20287;-80
2023/06/30 05:40:07;;;;;;;6.80;3.00;;;;;;;;;;5084977;28;20575;-81
2023/06/30 05:42:33;;;;;;;6.10;3.47;;;;;;;;;;5088956;28;20693;-80
2023/06/30 05:44:59;;;;;;;5.83;2.57;;;;;;;;;;5083312;28;20193;-81
2023/06/30 05:47:25;;;;;;;5.83;2.60;;;;;;;;;;5088518;28;20208;-81
2023/06/30 05:49:51;;;;;;;5.03;2.90;;;;;;;;;;5106808;28;20189;-80
2023/06/30 05:52:21;;;;;;;8.70;3.70;;;;;;;;;;5084692;28;20209;-80
2023/06/30 05:54:47;;;;;;;6.10;2.80;;;;;;;;;;5083701;28;20206;-80
2023/06/30 05:57:13;;;;;;;7.23;3.00;;;;;;;;;;5081957;28;20610;-79
2023/06/30 05:59:39;;;;;;;4.50;2.70;;;;;;;;;;5085901;28;20907;-80
2023/06/30 06:02:05;;;;;;;7.47;3.10;;;;;;;;;;5086669;28;20213;-79
2023/06/30 06:04:31;;;;;;;5.70;2.90;;;;;;;;;;5106246;28;20239;-79
2023/06/30 06:07:01;;;;;;;6.60;3.03;;;;;;;;;;5087676;28;20619;-80
2023/06/30 06:09:27;;;;;;;5.03;2.60;;;;;;;;;;5087795;28;20270;-79
2023/06/30 06:11:53;;;;;;;5.83;3.27;;;;;;;;;;5081618;28;20524;-82
2023/06/30 06:14:19;;;;;;;5.70;2.80;;;;;;;;;;5091084;28;20179;-82
2023/06/30 06:16:46;;;;;;;2.90;2.43;;;;;;;;;;5085548;28;20716;-82
2023/06/30 06:19:14;;;;;;;6.10;2.93;;;;;;;;;;5085865;28;20621;-82
2023/06/30 06:21:41;;;;;;;6.27;3.27;;;;;;;;;;5083034;28;20186;-82
2023/06/30 06:24:07;;;;;;;8.23;2.63;;;;;;;;;;5080938;28;20591;-83
2023/06/30 06:26:35;;;;;;;4.27;2.80;;;;;;;;;;5080828;28;20396;-83
2023/06/30 06:29:01;;;;;;;5.77;3.00;;;;;;;;;;5080969;28;20183;-84
2023/06/30 06:31:28;;;;;;;6.40;2.80;;;;;;;;;;5082834;28;20212;-82
2023/06/30 06:33:54;;;;;;;5.67;2.53;;;;;;;;;;5082925;28;20189;-81
2023/06/30 06:36:21;;;;;;;6.70;3.50;;;;;;;;;;5086192;28;20572;-81
2023/06/30 06:38:47;;;;;;;5.43;3.03;;;;;;;;;;5087005;28;20177;-82
2023/06/30 06:41:13;;;;;;;3.30;2.83;;;;;;;;;;5085272;28;20185;-80
2023/06/30 06:43:39;;;;;;;6.37;2.90;;;;;;;;;;5085938;28;20180;-88
2023/06/30 06:46:05;;;;;;;4.53;2.70;;;;;;;;;;5088437;28;20184;-81
2023/06/30 06:48:31;;;;;;;6.27;2.67;;;;;;;;;;5092561;28;20188;-84
2023/06/30 06:51:01;;;;;;;7.53;3.20;;;;;;;;;;5079165;28;20222;-82
2023/06/30 06:53:35;;;;;;;3.33;3.03;;;;;;;;;;5089477;28;20180;-83
2023/06/30 06:56:01;;;;;;;5.33;2.53;;;;;;;;;;5083877;28;20264;-83
2023/06/30 06:58:31;;;;;;;5.23;2.60;;;;;;;;;;5086049;28;20183;-83
2023/06/30 07:00:57;;;;;;;7.27;3.27;;;;;;;;;;5087471;28;20329;-82
2023/06/30 07:03:24;;;;;;;8.67;3.33;;;;;;;;;;5085858;28;20698;-83
2023/06/30 07:05:50;;;;;;;6.53;3.40;;;;;;;;;;5088622;28;20187;-78
2023/06/30 07:08:18;;;;;;;8.00;3.97;;;;;;;;;;5085223;28;20180;-80
2023/06/30 07:10:44;;;;;;;5.50;3.47;;;;;;;;;;5091071;28;20188;-80
2023/06/30 07:13:11;;;;;;;7.60;3.37;;;;;;;;;;5089560;28;20183;-80
2023/06/30 07:15:37;;;;;;;5.17;2.80;;;;;;;;;;5084052;28;20176;-80
2023/06/30 07:18:03;;;;;;;3.73;2.90;;;;;;;;;;5087495;28;20725;-80
2023/06/30 07:20:29;;;;;;;6.20;3.27;;;;;;;;;;5087644;28;20184;-82
2023/06/30 07:22:56;;;;;;;3.67;2.87;;;;;;;;;;5088655;28;20180;-81
2023/06/30 07:25:22;;;;;;;2.90;2.40;;;;;;;;;;5088593;28;20184;-81
2023/06/30 07:27:49;;;;;;;5.80;3.30;;;;;;;;;;5086246;28;20546;-81
2023/06/30 07:30:16;;;;;;;3.57;2.40;;;;;;;;;;5088895;28;20523;-82
2023/06/30 07:32:43;;;;;;;5.00;2.37;;;;;;;;;;5086345;28;20350;-82
2023/06/30 07:35:09;;;;;;;6.23;2.87;;;;;;;;;;5086550;28;20294;-79
2023/06/30 07:37:35;;;;;;;4.43;2.80;;;;;;;;;;5086040;28;20488;-83
2023/06/30 07:40:01;;;;;;;4.70;2.80;;;;;;;;;;5086728;28;20194;-82
2023/06/30 07:42:27;;;;;;;6.17;3.17;;;;;;;;;;5089279;28;20188;-83
2023/06/30 07:44:53;;;;;;;3.80;2.50;;;;;;;;;;5089355;28;20252;-83
2023/06/30 07:47:19;;;;;;;4.33;2.17;;;;;;;;;;5089381;28;20183;-82
2023/06/30 07:49:45;;;;;;;5.17;2.20;;;;;;;;;;5083045;28;20275;-82
2023/06/30 07:52:12;;;;;;;4.60;2.00;;;;;;;;;;5106658;28;20290;-83
2023/06/30 07:54:38;;;;;;;3.73;2.30;;;;;;;;;;5089846;28;20212;-82
2023/06/30 07:57:04;;;;;;;2.97;2.13;;;;;;;;;;5087272;28;20270;-83
2023/06/30 07:59:31;;;;;;;3.53;2.10;;;;;;;;;;5091038;28;20277;-83
2023/06/30 08:01:57;;;;;;;2.53;2.03;;;;;;;;;;5090698;28;20200;-83
2023/06/30 08:04:24;;;;;;;3.13;1.90;;;;;;;;;;5080841;28;20690;-84
2023/06/30 08:06:50;;;;;;;5.07;1.93;;;;;;;;;;5081731;28;20175;-84
2023/06/30 08:09:16;;;;;;;4.50;1.83;;;;;;;;;;5082774;28;20192;-81
2023/06/30 08:11:42;;;;;;;4.30;1.90;;;;;;;;;;5086578;28;20235;-81
2023/06/30 08:14:08;;;;;;;2.83;2.10;;;;;;;;;;5082130;28;20207;-80
2023/06/30 08:16:34;;;;;;;5.73;2.07;;;;;;;;;;5093076;28;20182;-83
2023/06/30 08:19:00;;;;;;;5.73;2.20;;;;;;;;;;5092988;28;20168;-82
2023/06/30 08:21:26;;;;;;;3.03;1.80;;;;;;;;;;5093787;28;20818;-81
2023/06/30 08:23:52;;;;;;;3.83;2.00;;;;;;;;;;5092605;28;20548;-81
2023/06/30 08:26:18;;;;;;;3.33;2.00;;;;;;;;;;5089536;28;20207;-82
2023/06/30 08:28:44;;;;;;;2.23;1.83;;;;;;;;;;5086093;28;20891;-82
2023/06/30 08:31:10;;;;;;;6.03;2.13;;;;;;;;;;5085506;28;20428;-86
2023/06/30 08:33:36;;;;;;;5.20;2.00;;;;;;;;;;5085612;28;20700;-85
2023/06/30 08:36:02;;;;;;;5.43;2.20;;;;;;;;;;5085922;28;20196;-85
2023/06/30 08:38:28;;;;;;;2.00;1.77;;;;;;;;;;5091620;28;20195;-86
2023/06/30 08:40:54;;;;;;;2.60;2.00;;;;;;;;;;5092906;28;20306;-86
2023/06/30 08:43:25;;;;;;;3.43;1.97;;;;;;;;;;5090467;28;20188;-85
2023/06/30 08:45:54;;;;;;;4.10;2.23;;;;;;;;;;5084078;28;20635;-84
2023/06/30 08:48:20;;;;;;;4.43;2.17;;;;;;;;;;5088913;28;20263;-81
2023/06/30 08:50:47;;;;;;;5.77;2.87;;;;;;;;;;5081552;28;20283;-81
2023/06/30 08:53:13;;;;;;;5.90;2.37;;;;;;;;;;5085319;28;20247;-80
2023/06/30 08:55:39;;;;;;;2.90;1.90;;;;;;;;;;5084563;28;20192;-81
2023/06/30 08:58:05;;;;;;;2.20;2.00;;;;;;;;;;5084460;28;20672;-80
2023/06/30 09:00:31;;;;;;;4.00;2.50;;;;;;;;;;5088677;28;20731;-81
2023/06/30 09:03:04;;;;;;;6.10;2.07;;;;;;;;;;5085176;28;20196;-81
2023/06/30 09:05:30;;;;;;;5.80;1.90;;;;;;;;;;5091929;28;20189;-80
2023/06/30 09:07:57;;;;;;;2.83;1.97;;;;;;;;;;5086467;28;20197;-81
2023/06/30 09:10:37;;;;;;;2.83;2.13;;;;;;;;;;5096619;28;20668;-81
2023/06/30 09:13:04;;;;;;;4.83;1.83;;;;;;;;;;5082100;28;20617;-81
2023/06/30 09:15:31;;;;;;;4.80;2.27;;;;;;;;;;5084626;28;20170;-81
2023/06/30 09:17:57;;;;;;;1.83;1.70;;;;;;;;;;5082676;28;20179;-84
2023/06/30 09:20:23;;;;;;;2.23;1.87;;;;;;;;;;5088028;28;20335;-85
2023/06/30 09:22:50;;;;;;;3.00;2.00;;;;;;;;;;5083599;28;20430;-84
2023/06/30 09:25:25;;;;;;;3.70;2.00;;;;;;;;;;5084744;28;20180;-80
2023/06/30 09:27:51;;;;;;;3.27;1.77;;;;;;;;;;5082797;28;20383;-81
2023/06/30 09:30:18;;;;;;;3.43;2.20;;;;;;;;;;5087893;28;20184;-80
2023/06/30 09:32:44;;;;;;;1.90;1.80;;;;;;;;;;5088565;28;20484;-80
2023/06/30 09:35:13;;;;;;;2.67;2.30;;;;;;;;;;5095317;28;20606;-81
2023/06/30 09:37:43;;;;;;;2.80;2.20;;;;;;;;;;5086766;28;20709;-83
2023/06/30 09:40:13;;;;;;;5.93;2.13;;;;;;;;;;5086075;28;20306;-82
2023/06/30 09:42:39;;;;;;;3.97;2.23;;;;;;;;;;5088683;28;20271;-82
2023/06/30 09:45:05;;;;;;;3.07;2.13;;;;;;;;;;5083839;28;20211;-82
2023/06/30 09:47:31;;;;;;;3.97;2.40;;;;;;;;;;5093586;28;20186;-83
2023/06/30 09:49:58;;;;;;;5.47;2.27;;;;;;;;;;5085545;28;20684;-82
2023/06/30 09:52:27;;;;;;;2.73;2.03;;;;;;;;;;5090426;28;20200;-80
2023/06/30 09:54:54;;;;;;;2.73;2.23;;;;;;;;;;5086243;28;20287;-81
2023/06/30 09:57:20;;;;;;;2.70;2.10;;;;;;;;;;5093827;28;20555;-80
2023/06/30 09:59:47;;;;;;;3.30;1.87;;;;;;;;;;5079657;28;20183;-81
2023/06/30 10:02:14;;;;;;;2.50;1.70;;;;;;;;;;5090361;28;20258;-81
2023/06/30 10:04:41;;;;;;;2.33;1.77;;;;;;;;;;5085602;28;20255;-81
2023/06/30 10:07:07;;;;;;;1.90;1.70;;;;;;;;;;5088433;28;20203;-81
2023/06/30 10:09:34;;;;;;;3.80;2.00;;;;;;;;;;5095534;28;20188;-84
2023/06/30 10:12:00;;;;;;;4.53;1.97;;;;;;;;;;5089653;28;20633;-89
2023/06/30 10:14:32;;;;;;;4.57;2.00;;;;;;;;;;5082047;28;20198;-85
2023/06/30 10:17:01;;;;;;;3.20;2.10;;;;;;;;;;5087308;28;20264;-85
2023/06/30 10:19:28;;;;;;;3.80;1.97;;;;;;;;;;5093497;28;20195;-80
2023/06/30 10:21:55;;;;;;;1.87;1.77;;;;;;;;;;5090359;28;20176;-80
2023/06/30 10:24:24;;;;;;;6.73;2.63;;;;;;;;;;5092724;28;20835;-82
2023/06/30 10:26:50;;;;;;;4.53;2.13;;;;;;;;;;5093134;28;20190;-82
2023/06/30 10:29:16;;;;;;;4.53;2.47;;;;;;;;;;5084918;28;20245;-82
2023/06/30 10:31:43;;;;;;;2.37;2.10;;;;;;;;;;5085677;28;20208;-83
2023/06/30 10:34:10;;;;;;;2.90;1.87;;;;;;;;;;5092099;28;20595;-84
2023/06/30 10:36:37;;;;;;;3.17;1.97;;;;;;;;;;5085703;28;20710;-84
2023/06/30 10:39:04;;;;;;;2.40;2.00;;;;;;;;;;5085167;28;20210;-84
2023/06/30 10:41:30;;;;;;;2.17;1.90;;;;;;;;;;5083765;28;20714;-81
2023/06/30 10:44:02;;;;;;;2.33;1.90;;;;;;;;;;5088274;28;20192;-80
2023/06/30 10:46:47;;;;;;;5.97;2.77;;;;;;;;;;5084887;28;20184;-82
2023/06/30 10:49:17;;;;;;;3.43;2.10;;;;;;;;;;5086067;28;20655;-80
2023/06/30 10:51:50;;;;;;;2.43;2.17;;;;;;;;;;5087604;28;20214;-81
2023/06/30 10:54:23;;;;;;;1.83;1.73;;;;;;;;;;5090873;28;20270;-87
2023/06/30 10:56:51;;;;;;;3.43;2.50;;;;;;;;;;5077108;28;20193;-81
2023/06/30 10:59:26;;;;;;;3.90;2.23;;;;;;;;;;5081247;28;20180;-81
2023/06/30 11:02:24;;;;;;;2.77;2.07;;;;;;;;;;5083807;28;20178;-82
2023/06/30 11:04:52;;;;;;;4.10;2.00;;;;;;;;;;5074301;28;20222;-81
2023/06/30 11:07:25;;;;;;;2.40;2.03;;;;;;;;;;5016576;22;20232;-85
2023/06/30 11:09:51;;;;;;;9.27;2.10;;;;;;;;;;5054916;28;20177;-86
2023/06/30 11:12:18;;;;;;;4.43;2.20;;;;;;;;;;5059437;28;20273;-87
2023/06/30 11:14:56;;;;;;;2.70;2.10;;;;;;;;;;5057050;28;20162;-86
2023/06/30 11:17:23;;;;;;;3.57;2.20;;;;;;;;;;4997581;28;20724;-87
2023/06/30 11:20:12;;;;;;;3.87;2.50;;;;;;;;;;5054118;28;20188;-88
2023/06/30 11:22:39;;;;;;;5.00;2.67;;;;;;;;;;4995089;28;20718;-86
2023/06/30 11:25:08;;;;;;;3.60;2.43;;;;;;;;;;5049459;28;20557;-85
2023/06/30 11:27:35;;;;;;;3.53;2.03;;;;;;;;;;5046394;28;20188;-84
2023/06/30 11:30:01;;;;;;;2.90;2.20;;;;;;;;;;5046198;28;20189;-85
2023/06/30 11:32:28;;;;;;;3.77;2.23;;;;;;;;;;5030115;28;20212;-85
2023/06/30 11:34:55;;;;;;;3.27;2.23;;;;;;;;;;5048590;28;20216;-86
2023/06/30 11:37:21;;;;;;;2.10;1.90;;;;;;;;;;5047853;28;20581;-86
2023/06/30 11:39:54;;;;;;;6.03;2.30;;;;;;;;;;5003387;28;20244;-86
2023/06/30 11:42:21;;;;;;;4.10;2.27;;;;;;;;;;5028212;28;20185;-85
2023/06/30 11:44:50;;;;;;;4.07;2.47;;;;;;;;;;4967653;28;20181;-85
2023/06/30 11:47:16;;;;;;;3.30;2.13;;;;;;;;;;5046739;28;20241;-87
2023/06/30 11:49:43;;;;;;;4.70;2.33;;;;;;;;;;5045972;28;20679;-85
2023/06/30 11:52:09;;;;;;;4.03;2.30;;;;;;;;;;5048612;28;20209;-86
2023/06/30 11:54:36;;;;;;;5.57;2.23;;;;;;;;;;5050502;28;20218;-85
2023/06/30 11:57:03;;;;;;;4.37;2.33;;;;;;;;;;5043885;28;20186;-86
2023/06/30 11:59:30;;;;;;;4.43;2.33;;;;;;;;;;5049999;28;20197;-87
2023/06/30 12:01:56;;;;;;;3.50;2.17;;;;;;;;;;5053570;28;20204;-86
2023/06/30 12:04:22;;;;;;;4.97;2.77;;;;;;;;;;5054779;28;20192;-86
2023/06/30 12:09:59;;;;;;;2.63;2.10;;;;;;;;;;5026591;28;20861;-84
2023/06/30 12:12:26;;;;;;;2.87;2.03;;;;;;;;;;5051496;28;20205;-85
2023/06/30 12:14:53;;;;;;;3.83;2.60;;;;;;;;;;5014262;28;20204;-87
2023/06/30 12:17:19;;;;;;;4.90;2.40;;;;;;;;;;5029985;28;20184;-86
2023/06/30 12:19:45;;;;;;;2.50;2.30;;;;;;;;;;5031846;28;20822;-87
2023/06/30 12:22:14;;;;;;;5.67;3.07;;;;;;;;;;5037221;28;20186;-88
2023/06/30 12:24:42;;;;;;;3.33;2.20;;;;;;;;;;5054904;28;20182;-88
2023/06/30 12:27:09;;;;;;;3.50;2.50;;;;;;;;;;5050848;28;20174;-89
2023/06/30 12:29:35;;;;;;;3.63;2.20;;;;;;;;;;5053092;28;20439;-89
2023/06/30 12:32:22;;;;;;;4.77;2.33;;;;;;;;;;5050360;28;20202;-90
2023/06/30 12:34:48;;;;;;;2.87;1.80;;;;;;;;;;5005463;28;20194;-89
2023/06/30 12:37:16;;;;;;;6.07;2.63;;;;;;;;;;5050202;28;20274;-87
2023/06/30 12:39:42;;;;;;;4.83;2.20;;;;;;;;;;5044042;28;20996;-88
2023/06/30 12:42:11;;;;;;;2.57;2.03;;;;;;;;;;5052198;28;20181;-88
2023/06/30 12:44:37;;;;;;;4.90;2.03;;;;;;;;;;5056691;28;20194;-88
2023/06/30 12:47:07;;;;;;;4.87;2.40;;;;;;;;;;5055716;28;20193;-89
2023/06/30 12:49:36;;;;;;;2.57;2.10;;;;;;;;;;5052237;28;20192;-88
2023/06/30 12:52:03;;;;;;;3.53;2.07;;;;;;;;;;5035833;28;20201;-89
2023/06/30 12:54:29;;;;;;;4.33;2.20;;;;;;;;;;5059112;28;20169;-87
2023/06/30 12:56:55;;;;;;;3.90;2.10;;;;;;;;;;5064291;28;20203;-88
2023/06/30 12:59:21;;;;;;;5.10;2.53;;;;;;;;;;5053078;28;20174;-88
2023/06/30 13:01:47;;;;;;;5.47;2.50;;;;;;;;;;5056056;28;20203;-89
2023/06/30 13:04:14;;;;;;;3.47;2.10;;;;;;;;;;5053330;28;20266;-89
2023/06/30 13:06:41;;;;;;;4.13;2.40;;;;;;;;;;5048704;28;20197;-88
2023/06/30 13:09:07;;;;;;;3.17;2.30;;;;;;;;;;5030363;28;20185;-88
2023/06/30 13:11:33;;;;;;;4.73;2.00;;;;;;;;;;5044593;28;20236;-88
2023/06/30 13:13:59;;;;;;;3.63;2.50;;;;;;;;;;5051453;28;20182;-88
2023/06/30 13:16:25;;;;;;;2.67;2.33;;;;;;;;;;5050887;28;20752;-88
2023/06/30 13:18:52;;;;;;;3.10;2.20;;;;;;;;;;5040949;28;20178;-88
2023/06/30 13:21:20;;;;;;;2.10;1.90;;;;;;;;;;5052384;28;20208;-88
2023/06/30 13:23:47;;;;;;;3.63;2.10;;;;;;;;;;5049287;28;20196;-88
2023/06/30 13:26:13;;;;;;;4.10;2.30;;;;;;;;;;5040315;28;20792;-87
2023/06/30 13:28:39;;;;;;;4.47;2.33;;;;;;;;;;5051971;28;20709;-87
2023/06/30 13:31:08;;;;;;;2.37;2.17;;;;;;;;;;5032763;28;20209;-89
2023/06/30 13:33:34;;;;;;;4.33;2.43;;;;;;;;;;5054441;28;20215;-88
2023/06/30 13:36:00;;;;;;;3.43;2.50;;;;;;;;;;5034703;28;20642;-88
2023/06/30 13:38:26;;;;;;;5.60;2.17;;;;;;;;;;5051672;28;20185;-87
2023/06/30 13:40:53;;;;;;;3.73;2.50;;;;;;;;;;5053603;28;20205;-87
2023/06/30 13:43:19;;;;;;;3.20;2.30;;;;;;;;;;5050227;28;20190;-88
2023/06/30 13:45:45;;;;;;;3.73;2.20;;;;;;;;;;5052056;28;20189;-87
2023/06/30 13:48:11;;;;;;;5.10;2.50;;;;;;;;;;5050549;28;20220;-88
2023/06/30 13:50:37;;;;;;;3.33;2.03;;;;;;;;;;4880352;28;20288;-89
2023/06/30 13:53:03;;;;;;;4.97;2.67;;;;;;;;;;5054017;28;20278;-88
2023/06/30 13:55:31;;;;;;;2.60;2.10;;;;;;;;;;5042078;28;20224;-89
2023/06/30 13:57:57;;;;;;;3.80;2.70;;;;;;;;;;5053890;28;20219;-88
2023/06/30 14:00:23;;;;;;;4.90;2.27;;;;;;;;;;5052258;28;20231;-89
2023/06/30 14:02:49;;;;;;;2.40;1.93;;;;;;;;;;5053714;28;20182;-88
2023/06/30 14:05:15;;;;;;;3.27;2.30;;;;;;;;;;5045943;28;20182;-87
2023/06/30 14:07:42;;;;;;;4.10;2.23;;;;;;;;;;5054283;28;20181;-86
2023/06/30 14:10:08;;;;;;;2.90;2.57;;;;;;;;;;5045910;28;20217;-89
2023/06/30 14:12:34;;;;;;;2.30;2.10;;;;;;;;;;5049899;28;20667;-87
2023/06/30 14:15:00;;;;;;;5.90;2.20;;;;;;;;;;5055133;28;20177;-89
2023/06/30 14:17:26;;;;;;;3.53;2.40;;;;;;;;;;5055073;28;20194;-88
2023/06/30 14:19:52;;;;;;;5.43;2.30;;;;;;;;;;5054357;28;20182;-89
2023/06/30 14:22:19;;;;;;;3.70;3.23;;;;;;;;;;5055655;28;20690;-88
2023/06/30 14:24:45;;;;;;;5.53;2.80;;;;;;;;;;5053455;28;20210;-90
2023/06/30 14:27:11;;;;;;;3.30;2.43;;;;;;;;;;5057203;28;20286;-89
2023/06/30 14:29:43;;;;;;;2.93;2.50;;;;;;;;;;4987556;28;20181;-88
2023/06/30 14:32:10;;;;;;;4.80;2.47;;;;;;;;;;5054509;28;20205;-89
2023/06/30 14:34:36;;;;;;;8.13;3.00;;;;;;;;;;5072279;28;20207;-85
2023/06/30 14:37:02;;;;;;;4.20;2.50;;;;;;;;;;5056653;28;20177;-85
2023/06/30 14:39:28;;;;;;;2.80;2.43;;;;;;;;;;5056672;28;20201;-87
2023/06/30 14:41:54;;;;;;;3.10;2.60;;;;;;;;;;5054120;28;20177;-86
2023/06/30 14:44:26;;;;;;;3.17;2.30;;;;;;;;;;5058225;28;20183;-87